| Date | Time | Temp. (oF) | Dew Point (oF) | Rel. Hum. (%) | Press. (in.) | Wind Dir. | Wind Speed (mph) | Hourly Rainfall (in.) |
|
|---|---|---|---|---|---|---|---|---|---|
| 1 | 11/30 | 00:00 | 34 | 26 | 74 | 30.28 | NNE | 4 | 0.00 |
| 2 | 11/29 | 23:00 | 33 | 26 | 76 | 30.29 | SW | 2 | 0.00 |
| 3 | 11/29 | 22:00 | 36 | 26 | 67 | 30.28 | SW | 1 | 0.00 |
| 4 | 11/29 | 21:00 | 39 | 27 | 62 | 30.27 | SW | 2 | 0.00 |
| 5 | 11/29 | 20:00 | 42 | 25 | 52 | 30.25 | NNW | 1 | 0.00 |
| 6 | 11/29 | 19:00 | 46 | 24 | 42 | 30.24 | WNW | 2 | 0.00 |
| 7 | 11/29 | 18:00 | 50 | 21 | 33 | 30.20 | NW | 6 | 0.00 |
| 8 | 11/29 | 17:00 | 54 | 23 | 30 | 30.18 | NW | 3 | 0.00 |
| 9 | 11/29 | 16:00 | 59 | 23 | 26 | 30.13 | NNW | 7 | 0.00 |
| 10 | 11/29 | 15:00 | 60 | 31 | 34 | 30.11 | WNW | 8 | 0.00 |
| 11 | 11/29 | 14:00 | 61 | 30 | 32 | 30.11 | WNW | 5 | 0.00 |
| 12 | 11/29 | 13:00 | 60 | 34 | 38 | 30.13 | NW | 9 | 0.00 |
| 13 | 11/29 | 12:00 | 62 | 35 | 38 | 30.11 | NNW | 9 | 0.00 |
| 14 | 11/29 | 11:00 | 60 | 34 | 38 | 30.13 | WNW | 4 | 0.00 |
| 15 | 11/29 | 10:00 | 54 | 36 | 52 | 30.14 | WSW | 2 | 0.00 |
| 16 | 11/29 | 09:00 | 42 | 37 | 83 | 30.14 | WNW | 1 | 0.00 |
| 17 | 11/29 | 08:00 | 37 | 34 | 90 | 30.13 | WNW | 1 | 0.00 |
| 18 | 11/29 | 07:00 | 36 | 32 | 88 | 30.12 | SSW | 0 | 0.00 |
| 19 | 11/29 | 06:00 | 38 | 33 | 84 | 30.10 | SSW | 1 | 0.00 |
| 20 | 11/29 | 05:00 | 40 | 34 | 80 | 30.09 | SSW | 1 | 0.00 |
| 21 | 11/29 | 04:00 | 42 | 34 | 75 | 30.11 | SSW | 2 | 0.00 |
| 22 | 11/29 | 03:00 | 44 | 36 | 75 | 30.11 | S | 4 | 0.00 |
| 23 | 11/29 | 02:00 | 46 | 38 | 76 | 30.13 | SSW | 4 | 0.00 |
| 24 | 11/29 | 01:00 | 46 | 40 | 80 | 30.14 | S | 5 | 0.00 |